sensor_id;sensor_type;location;lat;lon;timestamp;P1;P2;P0
77516;PMS7003;68414;53.946;27.634;2023-05-29T00:00:19;8.350000;8.116667;6.100000
77516;PMS7003;68414;53.946;27.634;2023-05-29T00:01:19;8.650000;7.550000;5.666667
77516;PMS7003;68414;53.946;27.634;2023-05-29T00:02:19;9.483334;9.050000;6.816667
77516;PMS7003;68414;53.946;27.634;2023-05-29T00:03:19;10.116667;9.116667;6.583333
77516;PMS7003;68414;53.946;27.634;2023-05-29T00:04:19;9.483334;8.533334;6.333333
77516;PMS7003;68414;53.946;27.634;2023-05-29T00:05:19;9.766666;8.933333;6.783333
77516;PMS7003;68414;53.946;27.634;2023-05-29T00:06:19;9.733334;8.400000;6.183333
77516;PMS7003;68414;53.946;27.634;2023-05-29T00:07:19;11.150000;10.083333;7.383333
77516;PMS7003;68414;53.946;27.634;2023-05-29T00:08:19;8.283334;8.050000;6.216667
77516;PMS7003;68414;53.946;27.634;2023-05-29T00:09:19;8.783334;7.916667;5.750000
77516;PMS7003;68414;53.946;27.634;2023-05-29T00:10:19;10.816667;9.633333;6.250000
77516;PMS7003;68414;53.946;27.634;2023-05-29T00:11:19;9.816667;8.700000;6.000000
77516;PMS7003;68414;53.946;27.634;2023-05-29T00:12:19;12.083333;10.516666;6.900000
77516;PMS7003;68414;53.946;27.634;2023-05-29T00:13:19;10.016666;9.683333;7.016667
77516;PMS7003;68414;53.946;27.634;2023-05-29T00:14:19;10.300000;9.916667;6.766667
77516;PMS7003;68414;53.946;27.634;2023-05-29T00:15:19;9.116667;8.350000;6.400000
77516;PMS7003;68414;53.946;27.634;2023-05-29T00:16:19;9.583333;8.550000;6.366667
77516;PMS7003;68414;53.946;27.634;2023-05-29T00:17:19;7.316667;6.950000;5.783333
77516;PMS7003;68414;53.946;27.634;2023-05-29T00:18:19;9.716666;9.716666;6.883333
77516;PMS7003;68414;53.946;27.634;2023-05-29T00:19:19;9.033334;8.600000;6.316667
77516;PMS7003;68414;53.946;27.634;2023-05-29T00:20:19;8.350000;8.350000;6.366667
77516;PMS7003;68414;53.946;27.634;2023-05-29T00:21:19;10.333333;9.900000;7.416667
77516;PMS7003;68414;53.946;27.634;2023-05-29T00:22:19;9.433333;8.116667;6.066667
77516;PMS7003;68414;53.946;27.634;2023-05-29T00:23:19;7.983333;7.983333;6.200000
77516;PMS7003;68414;53.946;27.634;2023-05-29T00:24:19;10.333333;9.466666;6.283333
77516;PMS7003;68414;53.946;27.634;2023-05-29T00:25:19;10.466666;9.750000;6.233333
77516;PMS7003;68414;53.946;27.634;2023-05-29T00:26:19;9.133333;9.133333;6.733333
77516;PMS7003;68414;53.946;27.634;2023-05-29T00:27:19;9.300000;8.900000;6.916667
77516;PMS7003;68414;53.946;27.634;2023-05-29T00:28:19;10.516666;9.716666;7.900000
77516;PMS7003;68414;53.946;27.634;2023-05-29T00:29:19;9.333333;8.600000;6.550000
77516;PMS7003;68414;53.946;27.634;2023-05-29T00:30:19;9.016666;8.066667;6.050000
77516;PMS7003;68414;53.946;27.634;2023-05-29T00:31:19;9.566667;9.016666;7.233333
77516;PMS7003;68414;53.946;27.634;2023-05-29T00:32:19;10.683333;10.033334;7.316667
77516;PMS7003;68414;53.946;27.634;2023-05-29T00:33:19;9.966666;9.083333;7.066667
77516;PMS7003;68414;53.946;27.634;2023-05-29T00:34:22;9.833333;8.866667;6.950000
77516;PMS7003;68414;53.946;27.634;2023-05-29T00:35:19;9.700000;9.450000;6.833333
77516;PMS7003;68414;53.946;27.634;2023-05-29T00:36:19;10.266666;9.616667;7.283333
77516;PMS7003;68414;53.946;27.634;2023-05-29T00:37:19;10.383333;9.766666;7.116667
77516;PMS7003;68414;53.946;27.634;2023-05-29T00:38:19;8.850000;7.566667;5.933333
77516;PMS7003;68414;53.946;27.634;2023-05-29T00:39:19;11.250000;10.333333;6.566667
77516;PMS7003;68414;53.946;27.634;2023-05-29T00:40:19;10.766666;10.150000;6.850000
77516;PMS7003;68414;53.946;27.634;2023-05-29T00:41:19;10.483334;10.200000;7.433333
77516;PMS7003;68414;53.946;27.634;2023-05-29T00:42:19;11.050000;9.733334;7.566667
77516;PMS7003;68414;53.946;27.634;2023-05-29T00:43:19;11.150000;9.983334;7.233333
77516;PMS7003;68414;53.946;27.634;2023-05-29T00:44:20;11.033334;10.083333;7.100000
77516;PMS7003;68414;53.946;27.634;2023-05-29T00:45:19;10.650000;9.816667;7.400000
77516;PMS7003;68414;53.946;27.634;2023-05-29T00:46:20;10.583333;9.383333;6.683333
77516;PMS7003;68414;53.946;27.634;2023-05-29T00:47:20;10.000000;9.433333;6.900000
77516;PMS7003;68414;53.946;27.634;2023-05-29T00:48:19;9.750000;9.266666;6.766667
77516;PMS7003;68414;53.946;27.634;2023-05-29T00:49:21;9.433333;9.216666;5.983333
77516;PMS7003;68414;53.946;27.634;2023-05-29T00:50:20;10.366667;9.883333;7.400000
77516;PMS7003;68414;53.946;27.634;2023-05-29T00:51:20;10.350000;9.783334;6.800000
77516;PMS7003;68414;53.946;27.634;2023-05-29T00:52:19;9.816667;9.483334;6.516667
77516;PMS7003;68414;53.946;27.634;2023-05-29T00:53:20;10.516666;9.350000;7.066667
77516;PMS7003;68414;53.946;27.634;2023-05-29T00:54:22;10.500000;9.816667;7.850000
77516;PMS7003;68414;53.946;27.634;2023-05-29T00:55:19;12.350000;10.450000;7.733333
77516;PMS7003;68414;53.946;27.634;2023-05-29T00:56:20;10.283334;9.550000;7.216667
77516;PMS7003;68414;53.946;27.634;2023-05-29T00:57:19;9.900000;9.166667;6.783333
77516;PMS7003;68414;53.946;27.634;2023-05-29T00:58:20;9.400000;8.600000;6.650000
77516;PMS7003;68414;53.946;27.634;2023-05-29T00:59:20;11.650000;10.333333;7.166667
77516;PMS7003;68414;53.946;27.634;2023-05-29T01:00:20;10.583333;9.733334;7.283333
77516;PMS7003;68414;53.946;27.634;2023-05-29T01:01:19;9.766666;9.133333;7.016667
77516;PMS7003;68414;53.946;27.634;2023-05-29T01:02:20;10.250000;9.600000;7.000000
77516;PMS7003;68414;53.946;27.634;2023-05-29T01:03:20;11.033334;10.133333;7.300000
77516;PMS7003;68414;53.946;27.634;2023-05-29T01:04:20;11.116667;10.733334;6.883333
77516;PMS7003;68414;53.946;27.634;2023-05-29T01:05:19;11.483334;10.816667;7.516667
77516;PMS7003;68414;53.946;27.634;2023-05-29T01:06:19;10.333333;10.116667;6.816667
77516;PMS7003;68414;53.946;27.634;2023-05-29T01:07:20;9.233334;8.683333;6.700000
77516;PMS7003;68414;53.946;27.634;2023-05-29T01:08:19;12.233334;11.283334;7.983333
77516;PMS7003;68414;53.946;27.634;2023-05-29T01:09:19;9.666667;8.733334;6.783333
77516;PMS7003;68414;53.946;27.634;2023-05-29T01:10:19;10.666667;9.700000;7.783333
77516;PMS7003;68414;53.946;27.634;2023-05-29T01:11:24;9.733334;9.366667;6.700000
77516;PMS7003;68414;53.946;27.634;2023-05-29T01:16:26;12.633333;11.883333;9.000000
77516;PMS7003;68414;53.946;27.634;2023-05-29T01:20:24;9.883333;9.416667;6.983333
77516;PMS7003;68414;53.946;27.634;2023-05-29T01:27:21;10.300000;9.666667;7.133333
77516;PMS7003;68414;53.946;27.634;2023-05-29T01:28:21;11.416667;10.433333;7.033333
77516;PMS7003;68414;53.946;27.634;2023-05-29T01:29:22;10.683333;10.483334;6.966667
77516;PMS7003;68414;53.946;27.634;2023-05-29T01:30:20;11.733334;10.333333;7.416667
77516;PMS7003;68414;53.946;27.634;2023-05-29T01:31:22;11.766666;10.116667;7.066667
77516;PMS7003;68414;53.946;27.634;2023-05-29T01:32:20;12.100000;10.933333;7.550000
77516;PMS7003;68414;53.946;27.634;2023-05-29T01:33:19;11.100000;9.850000;7.750000
77516;PMS7003;68414;53.946;27.634;2023-05-29T01:34:19;10.933333;10.250000;7.116667
77516;PMS7003;68414;53.946;27.634;2023-05-29T01:35:19;9.816667;9.033334;7.283333
77516;PMS7003;68414;53.946;27.634;2023-05-29T01:37:19;10.566667;8.966666;6.766667
77516;PMS7003;68414;53.946;27.634;2023-05-29T01:38:19;9.383333;8.950000;5.850000
77516;PMS7003;68414;53.946;27.634;2023-05-29T01:39:20;9.866667;9.316667;7.183333
77516;PMS7003;68414;53.946;27.634;2023-05-29T01:40:19;9.633333;8.200000;6.666667
77516;PMS7003;68414;53.946;27.634;2023-05-29T01:41:21;9.716666;9.350000;7.100000
77516;PMS7003;68414;53.946;27.634;2023-05-29T01:42:19;10.833333;10.100000;7.166667
77516;PMS7003;68414;53.946;27.634;2023-05-29T01:43:19;10.416667;9.700000;6.850000
77516;PMS7003;68414;53.946;27.634;2023-05-29T01:44:20;11.633333;10.283334;8.183333
77516;PMS7003;68414;53.946;27.634;2023-05-29T01:45:19;10.566667;10.183333;8.050000
77516;PMS7003;68414;53.946;27.634;2023-05-29T01:46:20;10.383333;10.066667;7.233333
77516;PMS7003;68414;53.946;27.634;2023-05-29T01:47:20;12.500000;11.216666;7.933333
77516;PMS7003;68414;53.946;27.634;2023-05-29T01:48:19;10.716666;10.316667;7.700000
77516;PMS7003;68414;53.946;27.634;2023-05-29T01:49:20;12.050000;11.716666;8.350000
77516;PMS7003;68414;53.946;27.634;2023-05-29T01:50:20;11.666667;10.983334;8.400000
77516;PMS7003;68414;53.946;27.634;2023-05-29T01:51:19;11.733334;10.933333;8.333333
77516;PMS7003;68414;53.946;27.634;2023-05-29T01:52:20;12.150000;11.716666;8.100000
77516;PMS7003;68414;53.946;27.634;2023-05-29T01:53:19;10.683333;10.183333;7.666667
77516;PMS7003;68414;53.946;27.634;2023-05-29T01:54:20;11.133333;10.816667;7.500000
77516;PMS7003;68414;53.946;27.634;2023-05-29T01:55:19;11.716666;10.616667;7.383333
77516;PMS7003;68414;53.946;27.634;2023-05-29T01:56:19;10.333333;9.616667;6.633333
77516;PMS7003;68414;53.946;27.634;2023-05-29T01:57:20;10.900000;10.333333;7.483333
77516;PMS7003;68414;53.946;27.634;2023-05-29T01:58:21;11.450000;10.433333;7.200000
77516;PMS7003;68414;53.946;27.634;2023-05-29T01:59:20;10.183333;9.400000;7.366667
77516;PMS7003;68414;53.946;27.634;2023-05-29T02:00:19;10.500000;10.250000;7.616667
77516;PMS7003;68414;53.946;27.634;2023-05-29T02:01:21;10.616667;9.816667;7.350000
77516;PMS7003;68414;53.946;27.634;2023-05-29T02:02:21;10.683333;9.700000;7.066667
77516;PMS7003;68414;53.946;27.634;2023-05-29T02:03:19;10.733334;9.883333;7.533333
77516;PMS7003;68414;53.946;27.634;2023-05-29T02:04:19;11.683333;10.983334;8.100000
77516;PMS7003;68414;53.946;27.634;2023-05-29T02:05:19;12.333333;10.716666;8.133333
77516;PMS7003;68414;53.946;27.634;2023-05-29T02:06:20;11.616667;10.833333;8.000000
77516;PMS7003;68414;53.946;27.634;2023-05-29T02:07:19;12.566667;11.733334;8.383333
77516;PMS7003;68414;53.946;27.634;2023-05-29T02:08:19;13.783334;12.850000;8.766666
77516;PMS7003;68414;53.946;27.634;2023-05-29T02:09:20;11.766666;11.183333;8.466666
77516;PMS7003;68414;53.946;27.634;2023-05-29T02:10:19;14.100000;13.600000;9.066667
77516;PMS7003;68414;53.946;27.634;2023-05-29T02:11:19;14.500000;13.266666;9.016666
77516;PMS7003;68414;53.946;27.634;2023-05-29T02:12:19;13.283334;12.550000;9.316667
77516;PMS7003;68414;53.946;27.634;2023-05-29T02:13:19;13.700000;13.333333;8.700000
77516;PMS7003;68414;53.946;27.634;2023-05-29T02:14:19;12.000000;10.800000;7.883333
77516;PMS7003;68414;53.946;27.634;2023-05-29T02:15:19;11.666667;10.533334;7.833333
77516;PMS7003;68414;53.946;27.634;2023-05-29T02:16:19;11.100000;10.433333;7.466667
77516;PMS7003;68414;53.946;27.634;2023-05-29T02:17:19;10.683333;10.066667;7.316667
77516;PMS7003;68414;53.946;27.634;2023-05-29T02:18:19;12.083333;11.083333;8.716666
77516;PMS7003;68414;53.946;27.634;2023-05-29T02:19:19;12.100000;10.366667;7.783333
77516;PMS7003;68414;53.946;27.634;2023-05-29T02:20:19;11.916667;11.650000;8.633333
77516;PMS7003;68414;53.946;27.634;2023-05-29T02:21:19;10.166667;10.150000;7.650000
77516;PMS7003;68414;53.946;27.634;2023-05-29T02:22:19;11.133333;10.366667;7.933333
77516;PMS7003;68414;53.946;27.634;2023-05-29T02:23:19;12.416667;12.250000;8.466666
77516;PMS7003;68414;53.946;27.634;2023-05-29T02:24:19;11.466666;9.966666;6.983333
77516;PMS7003;68414;53.946;27.634;2023-05-29T02:25:19;10.300000;9.316667;6.800000
77516;PMS7003;68414;53.946;27.634;2023-05-29T02:26:19;9.933333;9.566667;7.733333
77516;PMS7003;68414;53.946;27.634;2023-05-29T02:27:19;11.066667;10.966666;7.866667
77516;PMS7003;68414;53.946;27.634;2023-05-29T02:28:19;10.583333;10.450000;7.783333
77516;PMS7003;68414;53.946;27.634;2023-05-29T02:29:19;12.183333;11.133333;8.233334
77516;PMS7003;68414;53.946;27.634;2023-05-29T02:30:19;12.266666;11.383333;8.866667
77516;PMS7003;68414;53.946;27.634;2023-05-29T02:31:19;10.916667;10.383333;8.200000
77516;PMS7003;68414;53.946;27.634;2023-05-29T02:32:19;11.216666;10.566667;8.016666
77516;PMS7003;68414;53.946;27.634;2023-05-29T02:33:19;12.150000;10.400000;7.383333
77516;PMS7003;68414;53.946;27.634;2023-05-29T02:34:19;9.500000;8.866667;7.300000
77516;PMS7003;68414;53.946;27.634;2023-05-29T02:35:19;11.933333;10.916667;7.866667
77516;PMS7003;68414;53.946;27.634;2023-05-29T02:36:19;11.100000;10.316667;7.950000
77516;PMS7003;68414;53.946;27.634;2023-05-29T02:37:19;11.100000;9.866667;7.616667
77516;PMS7003;68414;53.946;27.634;2023-05-29T02:38:19;10.316667;10.100000;7.583333
77516;PMS7003;68414;53.946;27.634;2023-05-29T02:39:19;12.050000;11.116667;7.883333
77516;PMS7003;68414;53.946;27.634;2023-05-29T02:40:20;12.100000;11.533334;7.600000
77516;PMS7003;68414;53.946;27.634;2023-05-29T02:41:19;11.016666;11.016666;7.600000
77516;PMS7003;68414;53.946;27.634;2023-05-29T02:42:19;10.333333;10.166667;7.083333
77516;PMS7003;68414;53.946;27.634;2023-05-29T02:43:21;10.000000;9.433333;7.183333
77516;PMS7003;68414;53.946;27.634;2023-05-29T02:44:19;10.350000;9.916667;7.433333
77516;PMS7003;68414;53.946;27.634;2023-05-29T02:45:19;10.483334;9.450000;7.466667
77516;PMS7003;68414;53.946;27.634;2023-05-29T02:46:19;11.466666;10.383333;7.733333
77516;PMS7003;68414;53.946;27.634;2023-05-29T02:47:19;11.783334;10.900000;7.583333
77516;PMS7003;68414;53.946;27.634;2023-05-29T02:48:19;11.933333;10.550000;7.433333
77516;PMS7003;68414;53.946;27.634;2023-05-29T02:49:19;12.550000;11.733334;8.116667
77516;PMS7003;68414;53.946;27.634;2023-05-29T02:50:19;10.083333;9.500000;6.516667
77516;PMS7003;68414;53.946;27.634;2023-05-29T02:51:19;13.783334;12.733334;7.600000
77516;PMS7003;68414;53.946;27.634;2023-05-29T02:52:19;10.916667;9.633333;7.816667
77516;PMS7003;68414;53.946;27.634;2023-05-29T02:53:19;11.316667;10.100000;6.916667
77516;PMS7003;68414;53.946;27.634;2023-05-29T02:54:19;11.816667;10.566667;8.250000
77516;PMS7003;68414;53.946;27.634;2023-05-29T02:55:19;12.100000;10.583333;7.883333
77516;PMS7003;68414;53.946;27.634;2023-05-29T02:56:19;9.716666;8.900000;7.116667
77516;PMS7003;68414;53.946;27.634;2023-05-29T02:57:19;10.566667;9.666667;7.500000
77516;PMS7003;68414;53.946;27.634;2023-05-29T02:58:19;11.083333;10.383333;7.333333
77516;PMS7003;68414;53.946;27.634;2023-05-29T02:59:19;12.716666;11.216666;8.233334
77516;PMS7003;68414;53.946;27.634;2023-05-29T03:00:19;10.566667;9.950000;7.733333
77516;PMS7003;68414;53.946;27.634;2023-05-29T03:01:19;11.316667;9.900000;7.583333
77516;PMS7003;68414;53.946;27.634;2023-05-29T03:02:19;12.533334;10.683333;7.683333
77516;PMS7003;68414;53.946;27.634;2023-05-29T03:03:19;10.183333;9.383333;7.416667
77516;PMS7003;68414;53.946;27.634;2023-05-29T03:04:19;12.283334;11.050000;7.516667
77516;PMS7003;68414;53.946;27.634;2023-05-29T03:05:19;11.266666;11.100000;7.766667
77516;PMS7003;68414;53.946;27.634;2023-05-29T03:06:19;9.333333;9.300000;6.866667
77516;PMS7003;68414;53.946;27.634;2023-05-29T03:07:19;9.866667;9.200000;6.633333
77516;PMS7003;68414;53.946;27.634;2023-05-29T03:08:19;11.466666;10.200000;7.716667
77516;PMS7003;68414;53.946;27.634;2023-05-29T03:09:19;11.533334;11.533334;8.400000
77516;PMS7003;68414;53.946;27.634;2023-05-29T03:10:19;12.483334;12.166667;8.450000
77516;PMS7003;68414;53.946;27.634;2023-05-29T03:11:19;12.600000;10.866667;8.450000
77516;PMS7003;68414;53.946;27.634;2023-05-29T03:12:19;15.216666;13.283334;10.083333
77516;PMS7003;68414;53.946;27.634;2023-05-29T03:13:19;15.533334;13.916667;10.300000
77516;PMS7003;68414;53.946;27.634;2023-05-29T03:14:19;13.966666;13.300000;9.750000
77516;PMS7003;68414;53.946;27.634;2023-05-29T03:15:19;13.716666;13.083333;9.283334
77516;PMS7003;68414;53.946;27.634;2023-05-29T03:16:19;12.750000;12.533334;9.083333
77516;PMS7003;68414;53.946;27.634;2023-05-29T03:17:19;12.616667;11.950000;8.766666
77516;PMS7003;68414;53.946;27.634;2023-05-29T03:18:19;11.466666;10.166667;7.433333
77516;PMS7003;68414;53.946;27.634;2023-05-29T03:19:19;11.100000;10.633333;8.366667
77516;PMS7003;68414;53.946;27.634;2023-05-29T03:20:19;10.783334;10.016666;7.316667
77516;PMS7003;68414;53.946;27.634;2023-05-29T03:21:19;11.100000;10.016666;7.666667
77516;PMS7003;68414;53.946;27.634;2023-05-29T03:22:19;10.933333;9.566667;7.033333
77516;PMS7003;68414;53.946;27.634;2023-05-29T03:23:19;12.033334;10.850000;8.033334
77516;PMS7003;68414;53.946;27.634;2023-05-29T03:24:19;11.566667;10.350000;7.583333
77516;PMS7003;68414;53.946;27.634;2023-05-29T03:25:20;12.016666;10.983334;7.766667
77516;PMS7003;68414;53.946;27.634;2023-05-29T03:26:19;11.883333;9.950000;6.650000
77516;PMS7003;68414;53.946;27.634;2023-05-29T03:27:19;10.683333;9.683333;7.083333
77516;PMS7003;68414;53.946;27.634;2023-05-29T03:28:19;9.516666;9.000000;6.483333
77516;PMS7003;68414;53.946;27.634;2023-05-29T03:29:19;11.416667;10.400000;7.266667
77516;PMS7003;68414;53.946;27.634;2023-05-29T03:30:19;11.516666;10.433333;7.550000
77516;PMS7003;68414;53.946;27.634;2023-05-29T03:31:19;9.200000;8.500000;6.283333
77516;PMS7003;68414;53.946;27.634;2023-05-29T03:32:19;9.200000;9.033334;6.383333
77516;PMS7003;68414;53.946;27.634;2023-05-29T03:33:19;9.650000;9.300000;6.450000
77516;PMS7003;68414;53.946;27.634;2023-05-29T03:34:19;8.850000;7.650000;6.166667
77516;PMS7003;68414;53.946;27.634;2023-05-29T03:35:19;9.916667;9.216666;6.450000
77516;PMS7003;68414;53.946;27.634;2023-05-29T03:36:19;9.600000;8.416667;6.566667
77516;PMS7003;68414;53.946;27.634;2023-05-29T03:37:19;8.916667;8.916667;6.533333
77516;PMS7003;68414;53.946;27.634;2023-05-29T03:38:19;11.916667;10.516666;7.700000
77516;PMS7003;68414;53.946;27.634;2023-05-29T03:39:19;10.683333;10.100000;7.383333
77516;PMS7003;68414;53.946;27.634;2023-05-29T03:40:19;13.616667;12.033334;8.483334
77516;PMS7003;68414;53.946;27.634;2023-05-29T03:41:19;11.283334;11.033334;8.516666
77516;PMS7003;68414;53.946;27.634;2023-05-29T03:42:19;12.083333;11.300000;8.200000
77516;PMS7003;68414;53.946;27.634;2023-05-29T03:43:19;12.583333;11.416667;8.000000
77516;PMS7003;68414;53.946;27.634;2023-05-29T03:44:19;9.933333;9.933333;7.616667
77516;PMS7003;68414;53.946;27.634;2023-05-29T03:45:19;9.066667;9.066667;7.066667
77516;PMS7003;68414;53.946;27.634;2023-05-29T03:46:19;11.350000;9.750000;6.516667
77516;PMS7003;68414;53.946;27.634;2023-05-29T03:47:19;11.500000;10.316667;7.566667
77516;PMS7003;68414;53.946;27.634;2023-05-29T03:48:19;12.533334;11.616667;8.600000
77516;PMS7003;68414;53.946;27.634;2023-05-29T03:49:19;12.750000;11.166667;7.500000
77516;PMS7003;68414;53.946;27.634;2023-05-29T03:50:19;10.683333;10.300000;7.166667
77516;PMS7003;68414;53.946;27.634;2023-05-29T03:51:19;12.466666;10.650000;7.716667
77516;PMS7003;68414;53.946;27.634;2023-05-29T03:52:19;11.466666;11.083333;7.950000
77516;PMS7003;68414;53.946;27.634;2023-05-29T03:53:19;12.450000;10.733334;7.183333
77516;PMS7003;68414;53.946;27.634;2023-05-29T03:54:19;12.283334;11.600000;8.783334
77516;PMS7003;68414;53.946;27.634;2023-05-29T03:55:19;12.433333;11.816667;9.233334
77516;PMS7003;68414;53.946;27.634;2023-05-29T03:56:19;13.483334;12.050000;8.183333
77516;PMS7003;68414;53.946;27.634;2023-05-29T03:57:19;12.000000;11.183333;7.983333
77516;PMS7003;68414;53.946;27.634;2023-05-29T03:58:19;11.350000;11.033334;7.816667
77516;PMS7003;68414;53.946;27.634;2023-05-29T03:59:19;11.283334;10.683333;7.966667
77516;PMS7003;68414;53.946;27.634;2023-05-29T04:00:19;12.216666;11.283334;8.883333
77516;PMS7003;68414;53.946;27.634;2023-05-29T04:01:19;11.350000;10.466666;7.350000
77516;PMS7003;68414;53.946;27.634;2023-05-29T04:02:19;12.083333;11.150000;8.466666
77516;PMS7003;68414;53.946;27.634;2023-05-29T04:03:19;15.016666;13.666667;9.650000
77516;PMS7003;68414;53.946;27.634;2023-05-29T04:04:19;15.066667;14.300000;9.516666
77516;PMS7003;68414;53.946;27.634;2023-05-29T04:05:19;14.283334;13.966666;8.783334
77516;PMS7003;68414;53.946;27.634;2023-05-29T04:06:19;12.016666;10.966666;8.083333
77516;PMS7003;68414;53.946;27.634;2023-05-29T04:07:21;10.333333;9.600000;6.966667
77516;PMS7003;68414;53.946;27.634;2023-05-29T04:08:19;14.250000;12.416667;8.466666
77516;PMS7003;68414;53.946;27.634;2023-05-29T04:09:19;12.566667;12.433333;8.516666
77516;PMS7003;68414;53.946;27.634;2023-05-29T04:10:19;17.400000;15.783334;10.683333
77516;PMS7003;68414;53.946;27.634;2023-05-29T04:11:19;16.350000;15.683333;10.566667
77516;PMS7003;68414;53.946;27.634;2023-05-29T04:12:19;14.116667;13.466666;9.366667
77516;PMS7003;68414;53.946;27.634;2023-05-29T04:13:20;12.983334;12.883333;9.516666
77516;PMS7003;68414;53.946;27.634;2023-05-29T04:14:19;13.933333;13.283334;9.583333
77516;PMS7003;68414;53.946;27.634;2023-05-29T04:15:19;15.466666;14.616667;10.483334
77516;PMS7003;68414;53.946;27.634;2023-05-29T04:16:19;12.983334;12.616667;9.566667
77516;PMS7003;68414;53.946;27.634;2023-05-29T04:17:19;14.466666;13.600000;10.350000
77516;PMS7003;68414;53.946;27.634;2023-05-29T04:18:20;14.900000;13.283334;9.366667
77516;PMS7003;68414;53.946;27.634;2023-05-29T04:19:19;14.166667;13.433333;10.350000
77516;PMS7003;68414;53.946;27.634;2023-05-29T04:20:19;13.816667;13.166667;9.150000
77516;PMS7003;68414;53.946;27.634;2023-05-29T04:21:19;12.366667;10.766666;7.600000
77516;PMS7003;68414;53.946;27.634;2023-05-29T04:22:19;11.833333;11.483334;8.433333
77516;PMS7003;68414;53.946;27.634;2023-05-29T04:23:19;14.400000;13.683333;9.950000
77516;PMS7003;68414;53.946;27.634;2023-05-29T04:24:19;12.916667;11.366667;8.666667
77516;PMS7003;68414;53.946;27.634;2023-05-29T04:25:19;15.616667;14.333333;9.983334
77516;PMS7003;68414;53.946;27.634;2023-05-29T04:26:20;16.049999;14.200000;10.933333
77516;PMS7003;68414;53.946;27.634;2023-05-29T04:27:19;13.116667;11.916667;8.016666
77516;PMS7003;68414;53.946;27.634;2023-05-29T04:28:19;13.950000;13.500000;9.816667
77516;PMS7003;68414;53.946;27.634;2023-05-29T04:29:19;14.916667;14.316667;9.433333
77516;PMS7003;68414;53.946;27.634;2023-05-29T04:30:19;10.400000;9.116667;7.183333
77516;PMS7003;68414;53.946;27.634;2023-05-29T04:31:19;12.550000;11.233334;7.916667
77516;PMS7003;68414;53.946;27.634;2023-05-29T04:32:19;12.516666;12.183333;9.333333
77516;PMS7003;68414;53.946;27.634;2023-05-29T04:33:20;13.833333;12.316667;9.333333
77516;PMS7003;68414;53.946;27.634;2023-05-29T04:34:19;12.766666;11.916667;8.883333
77516;PMS7003;68414;53.946;27.634;2023-05-29T04:35:19;12.533334;11.483334;9.033334
77516;PMS7003;68414;53.946;27.634;2023-05-29T04:36:21;14.016666;12.433333;9.483334
77516;PMS7003;68414;53.946;27.634;2023-05-29T04:37:19;11.933333;11.416667;8.883333
77516;PMS7003;68414;53.946;27.634;2023-05-29T04:38:19;14.366667;13.650000;9.316667
77516;PMS7003;68414;53.946;27.634;2023-05-29T04:39:19;15.583333;14.450000;9.583333
77516;PMS7003;68414;53.946;27.634;2023-05-29T04:40:19;16.549999;15.116667;11.016666
77516;PMS7003;68414;53.946;27.634;2023-05-29T04:41:19;17.799999;16.666666;11.483334
77516;PMS7003;68414;53.946;27.634;2023-05-29T04:42:19;20.883333;20.350000;15.883333
77516;PMS7003;68414;53.946;27.634;2023-05-29T04:43:19;18.966667;17.400000;13.383333
77516;PMS7003;68414;53.946;27.634;2023-05-29T04:44:19;16.049999;14.633333;10.750000
77516;PMS7003;68414;53.946;27.634;2023-05-29T04:45:20;17.650000;15.216666;10.900000
77516;PMS7003;68414;53.946;27.634;2023-05-29T04:46:19;13.866667;13.483334;9.850000
77516;PMS7003;68414;53.946;27.634;2023-05-29T04:47:19;15.716666;14.066667;9.616667
77516;PMS7003;68414;53.946;27.634;2023-05-29T04:48:19;19.466667;17.966667;13.783334
77516;PMS7003;68414;53.946;27.634;2023-05-29T04:49:19;14.883333;14.516666;11.466666
77516;PMS7003;68414;53.946;27.634;2023-05-29T04:50:19;16.700001;15.283334;11.100000
77516;PMS7003;68414;53.946;27.634;2023-05-29T04:51:20;15.716666;14.216666;10.216666
77516;PMS7003;68414;53.946;27.634;2023-05-29T04:52:19;16.250000;15.733334;10.883333
77516;PMS7003;68414;53.946;27.634;2023-05-29T04:53:19;14.383333;13.250000;10.333333
77516;PMS7003;68414;53.946;27.634;2023-05-29T04:54:19;14.816667;14.450000;10.500000
77516;PMS7003;68414;53.946;27.634;2023-05-29T04:55:19;15.250000;13.866667;10.216666
77516;PMS7003;68414;53.946;27.634;2023-05-29T04:56:19;14.900000;14.650000;10.500000
77516;PMS7003;68414;53.946;27.634;2023-05-29T04:57:19;14.033334;13.700000;10.150000
77516;PMS7003;68414;53.946;27.634;2023-05-29T04:58:19;12.850000;11.866667;8.766666
77516;PMS7003;68414;53.946;27.634;2023-05-29T04:59:19;11.750000;11.483334;8.416667
77516;PMS7003;68414;53.946;27.634;2023-05-29T05:00:19;12.283334;10.916667;7.966667
77516;PMS7003;68414;53.946;27.634;2023-05-29T05:01:19;13.783334;12.133333;9.550000
77516;PMS7003;68414;53.946;27.634;2023-05-29T05:02:19;14.666667;13.816667;9.850000
77516;PMS7003;68414;53.946;27.634;2023-05-29T05:03:19;11.016666;10.016666;6.816667